Macwahoc Plt, Maine
Current Conditions -  °F | °C
As of 11:53 AM on Thursday 23 Oct 2014 (Local Time) from KMLT Reporting Station
Light Rain Light Rain  
Wind Chill: 42°   Ceiling: 900
Heat Index: 47°   Visibility: 5mi
Dew Point: 45°   Wind: 12mph
Humidity: 93%   Direction: 40°NE
Pressure: 30.02"   Gusts: 21mph
Location:  45.6117°N, 68.2294°W
Report Text: KMLT 231553Z AUTO 04010G18KT 010V080 5SM -RA BR BKN009 OVC012 08/07 A3002 RMK AO2 CIG 006V010 SLP173 P0004 T00830072
Loading
Personal Weather Stations






























Interactive Weather Map
Tropical Storm Tracking
New forecast layout! Learn more

10-Day Weather Forecast

Advertisements
Track Severe Weather on mobile